createdAt,value
2018-04-15T00:02:15.595Z,90.56
2018-04-15T00:04:41.623Z,92.31
2018-04-15T00:07:07.640Z,93.04
2018-04-15T00:09:33.659Z,91.36
2018-04-15T00:11:59.687Z,90.97
2018-04-15T00:14:25.741Z,91.35
2018-04-15T00:16:51.738Z,90.79
2018-04-15T00:19:17.733Z,91.44
2018-04-15T00:21:43.735Z,91.45
2018-04-15T00:24:09.757Z,91.44
2018-04-15T00:26:35.876Z,91.24
2018-04-15T00:29:01.912Z,91.63
2018-04-15T00:31:28.043Z,91.68
2018-04-15T00:33:54.148Z,92.27
2018-04-15T00:36:20.267Z,92.47
2018-04-15T00:38:46.285Z,91.77
2018-04-15T00:41:12.341Z,91.50
2018-04-15T00:43:38.413Z,93.00
2018-04-15T00:46:04.526Z,92.82
2018-04-15T00:48:30.551Z,92.76
2018-04-15T00:50:56.640Z,92.61
2018-04-15T00:53:22.788Z,92.36
2018-04-15T00:55:48.923Z,92.20
2018-04-15T00:58:14.984Z,92.73
2018-04-15T01:00:41.008Z,92.51
2018-04-15T01:03:07.100Z,93.04
2018-04-15T01:05:33.112Z,92.80
2018-04-15T01:07:59.128Z,92.47
2018-04-15T01:10:25.141Z,93.24
2018-04-15T01:12:51.258Z,92.32
2018-04-15T01:15:17.242Z,93.73
2018-04-15T01:17:43.291Z,93.32
2018-04-15T01:20:09.296Z,93.95
2018-04-15T01:22:35.339Z,94.15
2018-04-15T01:25:01.349Z,93.83
2018-04-15T01:27:27.373Z,93.97
2018-04-15T01:29:53.396Z,93.75
2018-04-15T01:32:19.434Z,93.59
2018-04-15T01:34:45.440Z,94.37
2018-04-15T01:37:11.448Z,94.21
2018-04-15T01:39:37.479Z,94.57
2018-04-15T01:42:03.505Z,94.98
2018-04-15T01:44:29.529Z,94.33
2018-04-15T01:46:55.717Z,94.28
2018-04-15T01:49:21.731Z,94.44
2018-04-15T01:51:47.766Z,94.75
2018-04-15T01:54:13.793Z,94.89
2018-04-15T01:56:39.791Z,95.11
2018-04-15T01:59:05.820Z,95.14
2018-04-15T02:01:31.846Z,95.25
2018-04-15T02:03:57.871Z,95.42
2018-04-15T02:06:23.897Z,94.82
2018-04-15T02:08:49.961Z,95.78
2018-04-15T02:11:16.076Z,95.05
2018-04-15T02:13:42.084Z,95.19
2018-04-15T02:16:08.133Z,95.53
2018-04-15T02:18:34.165Z,95.71
2018-04-15T02:21:00.258Z,95.73
2018-04-15T02:23:26.288Z,96.28
2018-04-15T02:25:52.285Z,96.15
2018-04-15T02:28:18.985Z,96.67
2018-04-15T02:30:45.036Z,96.51
2018-04-15T02:33:11.137Z,96.25
2018-04-15T02:35:37.141Z,96.21
2018-04-15T02:38:03.125Z,96.27
2018-04-15T02:40:29.163Z,96.49
2018-04-15T02:42:55.221Z,96.71
2018-04-15T02:45:21.227Z,96.35
2018-04-15T02:47:47.259Z,96.02
2018-04-15T02:50:13.296Z,96.18
2018-04-15T02:52:39.300Z,95.90
2018-04-15T02:55:05.311Z,95.89
2018-04-15T02:57:31.353Z,96.27
2018-04-15T02:59:57.393Z,96.11
2018-04-15T03:02:23.399Z,96.28
2018-04-15T03:04:49.461Z,96.55
2018-04-15T03:07:15.512Z,96.44
2018-04-15T03:09:41.510Z,95.73
2018-04-15T03:12:07.505Z,95.27
2018-04-15T03:14:33.513Z,93.23
2018-04-15T03:16:59.523Z,95.54
2018-04-15T03:19:25.550Z,95.49
2018-04-15T03:21:51.569Z,95.45
2018-04-15T03:24:17.586Z,95.08
2018-04-15T03:26:43.648Z,95.34
2018-04-15T03:29:09.672Z,94.11
2018-04-15T03:31:35.677Z,93.86
2018-04-15T03:34:01.684Z,94.36
2018-04-15T03:36:27.679Z,94.37
2018-04-15T03:38:53.662Z,94.77
2018-04-15T03:41:19.674Z,95.61
2018-04-15T03:43:45.714Z,94.60
2018-04-15T03:46:11.777Z,95.67
2018-04-15T03:48:37.801Z,95.08
2018-04-15T03:51:03.803Z,95.41
2018-04-15T03:53:29.982Z,93.29
2018-04-15T03:55:55.997Z,90.39
2018-04-15T03:58:22.001Z,92.27
2018-04-15T04:00:48.078Z,94.13
2018-04-15T04:03:14.179Z,91.77
2018-04-15T04:05:40.310Z,94.14
2018-04-15T04:08:06.313Z,95.33
2018-04-15T04:10:32.324Z,94.04
2018-04-15T04:12:59.058Z,93.84
2018-04-15T04:15:25.029Z,93.27
2018-04-15T04:18:03.237Z,93.71
2018-04-15T04:20:41.342Z,93.95
2018-04-15T04:23:19.755Z,94.44
2018-04-15T04:25:57.834Z,94.37
2018-04-15T04:28:23.915Z,94.21
2018-04-15T04:30:49.936Z,94.93
2018-04-15T04:33:15.928Z,94.56
2018-04-15T04:35:41.920Z,95.03
2018-04-15T04:38:07.902Z,94.47
2018-04-15T04:40:33.987Z,95.02
2018-04-15T04:43:00.022Z,95.17
2018-04-15T04:45:26.006Z,95.11
2018-04-15T04:47:52.122Z,96.14
2018-04-15T04:50:18.131Z,94.98
2018-04-15T04:52:50.971Z,94.66
2018-04-15T04:55:17.518Z,94.60
2018-04-15T04:57:43.521Z,93.61
2018-04-15T05:00:09.640Z,93.49
2018-04-15T05:02:35.766Z,94.43
2018-04-15T05:05:01.792Z,95.33
2018-04-15T05:07:27.814Z,93.60
2018-04-15T05:09:53.873Z,94.22
2018-04-15T05:12:19.934Z,92.75
2018-04-15T05:14:45.957Z,94.31
2018-04-15T05:17:12.123Z,94.86
2018-04-15T05:19:38.197Z,93.99
2018-04-15T05:22:04.301Z,94.32
2018-04-15T05:24:30.406Z,95.43
2018-04-15T05:26:56.404Z,95.51
2018-04-15T05:29:22.476Z,94.89
2018-04-15T05:31:48.652Z,94.80
2018-04-15T05:34:15.584Z,95.62
2018-04-15T05:36:41.646Z,96.18
2018-04-15T05:39:07.684Z,95.91
2018-04-15T05:41:33.702Z,95.31
2018-04-15T05:43:59.754Z,95.48
2018-04-15T05:46:25.804Z,95.01
2018-04-15T05:48:51.831Z,94.67
2018-04-15T05:51:18.733Z,93.59
2018-04-15T05:53:44.762Z,93.82
2018-04-15T05:56:10.823Z,93.91
2018-04-15T05:58:36.934Z,94.57
2018-04-15T06:01:03.069Z,94.45
2018-04-15T06:03:29.104Z,93.62
2018-04-15T06:05:55.136Z,94.52
2018-04-15T06:08:21.295Z,94.82
2018-04-15T06:10:47.362Z,94.65
2018-04-15T06:13:13.376Z,94.17
2018-04-15T06:15:39.433Z,94.56
2018-04-15T06:18:05.456Z,93.74
2018-04-15T06:20:31.515Z,92.53
2018-04-15T06:25:30.269Z,92.57
2018-04-15T06:27:56.305Z,93.91
2018-04-15T06:30:22.405Z,94.43
2018-04-15T06:32:48.454Z,94.06
2018-04-15T06:35:14.469Z,92.96
2018-04-15T06:37:41.235Z,92.72
2018-04-15T06:40:07.268Z,93.73
2018-04-15T06:42:33.412Z,93.32
2018-04-15T06:44:59.856Z,93.56
2018-04-15T06:47:25.897Z,92.68
2018-04-15T06:49:51.947Z,92.66
2018-04-15T06:52:18.033Z,93.10
2018-04-15T06:54:44.049Z,92.38
2018-04-15T06:57:10.384Z,93.15
2018-04-15T06:59:36.600Z,92.39
2018-04-15T07:02:02.690Z,91.98
2018-04-15T07:04:29.274Z,92.42
2018-04-15T07:06:55.308Z,91.85
2018-04-15T07:09:21.429Z,92.22
2018-04-15T07:11:47.599Z,92.63
2018-04-15T07:14:13.726Z,92.59
2018-04-15T07:16:39.778Z,92.85
2018-04-15T07:19:05.895Z,93.19
2018-04-15T07:21:39.020Z,92.53
2018-04-15T07:24:05.119Z,92.57
2018-04-15T07:26:31.144Z,93.49
2018-04-15T07:28:57.147Z,93.32
2018-04-15T07:31:23.208Z,93.04
2018-04-15T07:33:49.261Z,93.02
2018-04-15T07:36:15.295Z,92.41
2018-04-15T07:38:41.384Z,93.17
2018-04-15T07:41:07.416Z,93.53
2018-04-15T07:43:33.463Z,92.75
2018-04-15T07:45:59.508Z,92.70
2018-04-15T07:48:25.499Z,91.71
2018-04-15T07:50:51.582Z,91.79
2018-04-15T07:53:17.623Z,92.07
2018-04-15T07:55:43.629Z,91.36
2018-04-15T07:58:09.649Z,91.15
2018-04-15T08:00:35.655Z,88.59
2018-04-15T08:03:01.684Z,88.84
2018-04-15T08:05:27.709Z,88.76
2018-04-15T08:07:54.313Z,86.24
2018-04-15T08:10:20.472Z,86.68
2018-04-15T08:12:46.473Z,84.83
2018-04-15T08:15:12.495Z,85.96
2018-04-15T08:17:38.615Z,85.22
2018-04-15T08:20:05.294Z,86.76
2018-04-15T08:22:31.379Z,85.93
2018-04-15T08:24:57.482Z,83.88
2018-04-15T08:27:23.510Z,85.19
2018-04-15T08:29:49.535Z,86.49
2018-04-15T08:32:15.563Z,85.99
2018-04-15T08:34:41.605Z,87.16
2018-04-15T08:37:07.755Z,88.18
2018-04-15T08:39:33.738Z,87.57
2018-04-15T08:41:59.760Z,86.97
2018-04-15T08:44:25.822Z,86.72
2018-04-15T08:46:51.796Z,85.51
2018-04-15T08:49:18.441Z,84.63
2018-04-15T08:51:44.521Z,83.49
2018-04-15T08:54:10.554Z,81.16
2018-04-15T08:56:36.620Z,81.52
2018-04-15T08:59:02.619Z,82.50
2018-04-15T09:01:28.752Z,79.01
2018-04-15T09:03:54.792Z,77.17
2018-04-15T09:06:20.804Z,75.35
2018-04-15T09:08:46.906Z,75.72
2018-04-15T09:11:13.056Z,75.33
2018-04-15T09:13:39.079Z,76.53
2018-04-15T09:16:05.109Z,73.51
2018-04-15T09:18:31.236Z,72.86
2018-04-15T09:20:57.289Z,73.00
2018-04-15T09:23:23.302Z,73.84
2018-04-15T09:25:49.340Z,75.69
2018-04-15T09:28:15.377Z,74.96
2018-04-15T09:30:47.367Z,72.90
2018-04-15T09:33:13.412Z,72.50
2018-04-15T09:35:39.469Z,73.98
2018-04-15T09:38:05.529Z,75.56
2018-04-15T09:40:31.550Z,71.95
2018-04-15T09:42:57.571Z,69.21
2018-04-15T09:45:23.597Z,70.09
2018-04-15T09:47:49.800Z,69.74
2018-04-15T09:50:15.855Z,67.02
2018-04-15T09:52:41.862Z,61.98
2018-04-15T09:55:07.898Z,61.99
2018-04-15T09:57:33.944Z,60.55
2018-04-15T09:59:59.989Z,57.61
2018-04-15T10:02:26.027Z,58.02
2018-04-15T10:04:52.037Z,60.85
2018-04-15T10:07:18.076Z,60.67
2018-04-15T10:09:44.339Z,61.29
2018-04-15T10:12:10.369Z,59.42
2018-04-15T10:14:36.389Z,59.73
2018-04-15T10:17:02.416Z,60.31
2018-04-15T10:19:28.554Z,60.97
2018-04-15T10:21:54.710Z,60.08
2018-04-15T10:24:20.809Z,59.94
2018-04-15T10:26:46.897Z,60.84
2018-04-15T10:29:12.892Z,60.70
2018-04-15T10:31:39.262Z,58.66
2018-04-15T10:34:05.341Z,56.50
2018-04-15T10:36:31.400Z,57.13
2018-04-15T10:38:57.473Z,54.75
2018-04-15T10:41:23.489Z,54.93
2018-04-15T10:43:49.496Z,53.12
2018-04-15T10:46:15.492Z,55.28
2018-04-15T10:48:41.500Z,56.27
2018-04-15T10:51:07.506Z,57.43
2018-04-15T10:53:33.608Z,53.78
2018-04-15T10:55:59.673Z,56.08
2018-04-15T10:58:25.705Z,56.33
2018-04-15T11:00:51.792Z,54.33
2018-04-15T11:03:17.821Z,53.48
2018-04-15T11:05:43.835Z,58.35
2018-04-15T11:08:09.851Z,56.38
2018-04-15T11:10:35.864Z,54.14
2018-04-15T11:13:01.952Z,55.54
2018-04-15T11:15:28.054Z,52.96
2018-04-15T11:17:54.071Z,53.69
2018-04-15T11:20:20.150Z,54.98
2018-04-15T11:22:46.221Z,52.91
2018-04-15T11:25:12.324Z,54.23
2018-04-15T11:27:38.363Z,53.77
2018-04-15T11:30:04.379Z,56.18
2018-04-15T11:32:37.417Z,54.74
2018-04-15T11:35:03.440Z,58.52
2018-04-15T11:37:29.447Z,57.12
2018-04-15T11:39:55.501Z,59.95
2018-04-15T11:42:21.572Z,60.99
2018-04-15T11:44:47.614Z,60.67
2018-04-15T11:47:13.662Z,61.22
2018-04-15T11:49:39.781Z,60.76
2018-04-15T11:52:05.788Z,61.17
2018-04-15T11:54:31.825Z,59.76
2018-04-15T11:56:57.850Z,59.72
2018-04-15T11:59:23.857Z,57.15
2018-04-15T12:01:49.855Z,54.95
2018-04-15T12:04:15.863Z,54.23
2018-04-15T12:06:41.927Z,54.60
2018-04-15T12:09:07.971Z,55.55
2018-04-15T12:11:34.038Z,55.71
2018-04-15T12:14:00.050Z,55.58
2018-04-15T12:16:26.125Z,56.86
2018-04-15T12:18:52.172Z,55.20
2018-04-15T12:21:18.890Z,54.49
2018-04-15T12:23:44.962Z,53.85
2018-04-15T12:26:11.033Z,54.09
2018-04-15T12:28:37.089Z,55.43
2018-04-15T12:31:03.113Z,56.51
2018-04-15T12:33:29.153Z,56.90
2018-04-15T12:35:55.296Z,58.30
2018-04-15T12:38:21.328Z,59.62
2018-04-15T12:40:47.405Z,58.44
2018-04-15T12:43:13.401Z,58.11
2018-04-15T12:45:39.440Z,59.10
2018-04-15T12:48:05.473Z,59.17
2018-04-15T12:50:31.681Z,59.42
2018-04-15T12:52:57.680Z,60.25
2018-04-15T12:55:23.720Z,61.53
2018-04-15T12:57:49.758Z,61.59
2018-04-15T13:00:15.804Z,61.76
2018-04-15T13:02:41.837Z,62.40
2018-04-15T13:05:07.877Z,63.75
2018-04-15T13:07:33.941Z,64.26
2018-04-15T13:10:00.005Z,63.89
2018-04-15T13:12:26.136Z,64.37
2018-04-15T13:14:52.760Z,65.02
2018-04-15T13:17:18.880Z,65.24
2018-04-15T13:19:44.893Z,65.14
2018-04-15T13:22:11.079Z,65.28
2018-04-15T13:24:37.227Z,65.57
2018-04-15T13:27:03.246Z,65.81
2018-04-15T13:29:29.289Z,65.86
2018-04-15T13:31:55.336Z,65.86
2018-04-15T13:34:21.386Z,67.00
2018-04-15T13:36:47.409Z,66.21
2018-04-15T13:39:13.416Z,66.69
2018-04-15T13:41:39.452Z,66.79
2018-04-15T13:44:05.468Z,67.24
2018-04-15T13:46:31.473Z,66.87
2018-04-15T13:48:57.521Z,66.30
2018-04-15T13:51:23.525Z,65.74
2018-04-15T13:53:49.534Z,64.04
2018-04-15T13:56:15.557Z,61.57
2018-04-15T13:58:41.573Z,61.21
2018-04-15T14:01:07.584Z,61.20
2018-04-15T14:03:33.630Z,61.37
2018-04-15T14:05:59.662Z,60.78
2018-04-15T14:08:25.693Z,63.24
2018-04-15T14:10:51.718Z,63.44
2018-04-15T14:13:17.764Z,63.14
2018-04-15T14:15:43.807Z,63.72
2018-04-15T14:18:09.867Z,63.49
2018-04-15T14:20:35.936Z,64.27
2018-04-15T14:23:01.951Z,64.20
2018-04-15T14:25:28.063Z,65.44
2018-04-15T14:27:54.047Z,65.46
2018-04-15T14:30:20.190Z,65.99
2018-04-15T14:32:46.269Z,66.68
2018-04-15T14:35:12.316Z,66.97
2018-04-15T14:37:39.153Z,67.40
2018-04-15T14:40:05.221Z,68.31
2018-04-15T14:42:31.265Z,69.99
2018-04-15T14:44:57.337Z,71.98
2018-04-15T14:47:23.357Z,72.45
2018-04-15T14:49:49.401Z,73.51
2018-04-15T14:52:15.526Z,73.25
2018-04-15T14:54:41.649Z,73.84
2018-04-15T14:57:07.777Z,75.00
2018-04-15T14:59:33.993Z,74.99
2018-04-15T15:02:00.092Z,75.45
2018-04-15T15:04:26.303Z,75.74
2018-04-15T15:06:52.341Z,75.15
2018-04-15T15:09:18.423Z,74.90
2018-04-15T15:11:44.492Z,74.79
2018-04-15T15:14:10.737Z,74.96
2018-04-15T15:16:36.944Z,73.91
2018-04-15T15:19:03.111Z,73.49
2018-04-15T15:21:29.222Z,73.15
2018-04-15T15:23:55.254Z,72.74
2018-04-15T15:26:21.519Z,72.85
2018-04-15T15:28:47.542Z,73.17
2018-04-15T15:31:13.607Z,73.16
2018-04-15T15:33:39.918Z,72.58
2018-04-15T15:36:06.047Z,72.29
2018-04-15T15:38:32.073Z,72.09
2018-04-15T15:40:58.136Z,71.54
2018-04-15T15:43:24.220Z,71.80
2018-04-15T15:45:50.300Z,72.13
2018-04-15T15:48:16.371Z,73.11
2018-04-15T15:50:43.188Z,73.22
2018-04-15T15:53:09.237Z,73.67
2018-04-15T15:55:35.263Z,73.78
2018-04-15T15:58:01.276Z,73.96
2018-04-15T16:00:27.452Z,74.04
2018-04-15T16:02:53.464Z,74.91
2018-04-15T16:05:19.495Z,75.15
2018-04-15T16:07:45.513Z,74.97
2018-04-15T16:10:11.538Z,74.69
2018-04-15T16:12:37.575Z,74.39
2018-04-15T16:15:03.612Z,74.87
2018-04-15T16:17:29.670Z,74.86
2018-04-15T16:19:55.711Z,74.31
2018-04-15T16:22:21.732Z,74.12
2018-04-15T16:24:47.839Z,73.83
2018-04-15T16:27:13.919Z,74.55
2018-04-15T16:29:39.953Z,74.95
2018-04-15T16:32:06.018Z,75.81
2018-04-15T16:34:32.066Z,75.64
2018-04-15T16:36:58.135Z,76.61
2018-04-15T16:39:24.151Z,76.46
2018-04-15T16:41:50.218Z,76.58
2018-04-15T16:44:16.255Z,76.88
2018-04-15T16:46:42.647Z,77.64
2018-04-15T16:49:08.692Z,77.41
2018-04-15T16:51:34.836Z,77.48
2018-04-15T16:54:01.008Z,77.29
2018-04-15T16:56:27.110Z,76.99
2018-04-15T16:58:53.145Z,77.43
2018-04-15T17:01:19.197Z,77.04
2018-04-15T17:03:45.383Z,77.17
2018-04-15T17:06:11.423Z,77.00
2018-04-15T17:08:37.489Z,77.80
2018-04-15T17:11:03.554Z,77.63
2018-04-15T17:13:29.545Z,77.34
2018-04-15T17:15:55.609Z,77.84
2018-04-15T17:18:21.634Z,77.78
2018-04-15T17:20:47.668Z,77.74
2018-04-15T17:23:13.764Z,77.93
2018-04-15T17:25:39.848Z,77.74
2018-04-15T17:28:06.007Z,77.46
2018-04-15T17:30:32.117Z,77.20
2018-04-15T17:32:58.142Z,77.70
2018-04-15T17:35:24.213Z,77.60
2018-04-15T17:37:50.365Z,77.06
2018-04-15T17:40:16.538Z,77.24
2018-04-15T17:42:42.718Z,78.30
2018-04-15T17:45:08.788Z,78.90
2018-04-15T17:47:34.826Z,78.57
2018-04-15T17:50:00.921Z,78.95
2018-04-15T17:52:27.034Z,78.02
2018-04-15T17:54:53.151Z,77.97
2018-04-15T17:57:19.289Z,78.85
2018-04-15T17:59:45.452Z,78.49
2018-04-15T18:02:11.691Z,78.86
2018-04-15T18:04:37.852Z,78.65
2018-04-15T18:07:03.954Z,78.63
2018-04-15T18:09:29.995Z,79.06
2018-04-15T18:14:28.858Z,79.37
2018-04-15T18:16:55.067Z,79.42
2018-04-15T18:19:21.233Z,79.07
2018-04-15T18:21:47.398Z,79.06
2018-04-15T18:24:13.427Z,78.91
2018-04-15T18:26:39.673Z,79.12
2018-04-15T18:29:05.785Z,79.33
2018-04-15T18:31:31.912Z,79.56
2018-04-15T18:33:58.001Z,79.57
2018-04-15T18:36:24.206Z,79.86
2018-04-15T18:38:50.361Z,79.86
2018-04-15T18:41:16.520Z,80.34
2018-04-15T18:43:42.572Z,80.52
2018-04-15T18:46:08.669Z,81.41
2018-04-15T18:48:34.703Z,80.62
2018-04-15T18:51:01.381Z,80.83
2018-04-15T18:53:27.478Z,80.72
2018-04-15T18:55:53.520Z,80.72
2018-04-15T18:58:19.596Z,81.07
2018-04-15T19:00:45.762Z,81.04
2018-04-15T19:03:11.790Z,81.00
2018-04-15T19:05:37.993Z,81.02
2018-04-15T19:08:04.117Z,80.85
2018-04-15T19:10:30.154Z,80.91
2018-04-15T19:12:56.376Z,81.34
2018-04-15T19:15:22.780Z,80.90
2018-04-15T19:17:48.893Z,80.98
2018-04-15T19:20:14.971Z,81.24
2018-04-15T19:22:41.127Z,81.19
2018-04-15T19:25:07.202Z,81.18
2018-04-15T19:27:33.225Z,82.06
2018-04-15T19:29:59.267Z,81.83
2018-04-15T19:32:25.458Z,82.24
2018-04-15T19:34:51.505Z,81.90
2018-04-15T19:37:17.547Z,82.59
2018-04-15T19:39:43.580Z,82.80
2018-04-15T19:42:09.620Z,82.27
2018-04-15T19:44:35.656Z,82.20
2018-04-15T19:47:01.680Z,82.24
2018-04-15T19:49:27.778Z,83.10
2018-04-15T19:51:54.634Z,82.32
2018-04-15T19:54:20.719Z,82.26
2018-04-15T19:56:46.947Z,82.50
2018-04-15T19:59:13.029Z,82.30
2018-04-15T20:01:39.043Z,82.23
2018-04-15T20:04:05.540Z,82.59
2018-04-15T20:06:31.600Z,82.44
2018-04-15T20:08:57.605Z,82.48
2018-04-15T20:11:23.620Z,83.08
2018-04-15T20:13:49.701Z,83.36
2018-04-15T20:16:15.754Z,83.91
2018-04-15T20:18:41.795Z,83.29
2018-04-15T20:21:07.875Z,83.43
2018-04-15T20:23:34.022Z,83.32
2018-04-15T20:26:00.190Z,83.26
2018-04-15T20:28:26.360Z,83.75
2018-04-15T20:30:52.489Z,83.35
2018-04-15T20:33:18.716Z,83.25
2018-04-15T20:35:44.749Z,83.13
2018-04-15T20:38:10.840Z,83.31
2018-04-15T20:40:36.893Z,83.48
2018-04-15T20:43:02.984Z,83.40
2018-04-15T20:45:29.124Z,83.46
2018-04-15T20:47:55.158Z,83.31
2018-04-15T20:50:21.305Z,84.17
2018-04-15T20:52:47.388Z,83.71
2018-04-15T20:55:13.439Z,84.46
2018-04-15T20:57:39.483Z,83.86
2018-04-15T21:00:05.533Z,84.09
2018-04-15T21:02:31.580Z,84.48
2018-04-15T21:04:57.756Z,84.56
2018-04-15T21:07:23.799Z,85.08
2018-04-15T21:09:49.827Z,84.36
2018-04-15T21:12:15.868Z,84.53
2018-04-15T21:14:41.940Z,84.56
2018-04-15T21:17:08.005Z,84.83
2018-04-15T21:19:34.023Z,84.98
2018-04-15T21:22:00.059Z,84.78
2018-04-15T21:24:26.112Z,84.48
2018-04-15T21:26:52.184Z,84.44
2018-04-15T21:29:18.249Z,84.10
2018-04-15T21:31:44.279Z,84.14
2018-04-15T21:34:10.329Z,84.32
2018-04-15T21:36:36.464Z,84.13
2018-04-15T21:39:02.621Z,83.98
2018-04-15T21:41:28.770Z,84.10
2018-04-15T21:43:54.854Z,84.18
2018-04-15T21:46:20.966Z,84.03
2018-04-15T21:48:47.153Z,83.80
2018-04-15T21:51:13.949Z,83.91
2018-04-15T21:53:39.965Z,82.07
2018-04-15T21:56:06.084Z,82.30
2018-04-15T21:58:32.084Z,81.64
2018-04-15T22:00:58.169Z,80.55
2018-04-15T22:03:24.200Z,79.75
2018-04-15T22:05:50.246Z,79.91
2018-04-15T22:08:16.298Z,79.80
2018-04-15T22:10:42.819Z,80.21
2018-04-15T22:13:08.999Z,81.80
2018-04-15T22:15:35.094Z,84.14
2018-04-15T22:18:01.127Z,85.39
2018-04-15T22:20:27.197Z,85.75
2018-04-15T22:22:53.360Z,86.57
2018-04-15T22:25:19.427Z,86.92
2018-04-15T22:27:45.492Z,87.42
2018-04-15T22:30:11.525Z,88.65
2018-04-15T22:32:37.561Z,89.44
2018-04-15T22:35:03.596Z,90.43
2018-04-15T22:37:29.619Z,89.75
2018-04-15T22:39:55.644Z,90.72
2018-04-15T22:42:21.665Z,91.03
2018-04-15T22:44:47.748Z,91.76
2018-04-15T22:47:13.784Z,92.33
2018-04-15T22:49:42.869Z,92.17
2018-04-15T22:52:09.034Z,91.33
2018-04-15T22:54:35.154Z,91.77
2018-04-15T22:57:07.423Z,91.61
2018-04-15T22:59:33.494Z,91.37
2018-04-15T23:01:59.508Z,91.24
2018-04-15T23:04:25.520Z,90.77
2018-04-15T23:06:51.616Z,90.81
2018-04-15T23:09:17.677Z,89.80
2018-04-15T23:11:43.740Z,89.79
2018-04-15T23:14:09.756Z,89.40
2018-04-15T23:16:35.832Z,89.96
2018-04-15T23:19:01.901Z,88.46
2018-04-15T23:21:27.949Z,88.00
2018-04-15T23:23:53.961Z,88.19
2018-04-15T23:26:20.040Z,89.59
2018-04-15T23:28:46.113Z,90.15
2018-04-15T23:31:12.326Z,89.60
2018-04-15T23:33:38.381Z,90.42
2018-04-15T23:36:04.424Z,90.24
2018-04-15T23:38:30.490Z,90.13
2018-04-15T23:40:56.536Z,90.38
2018-04-15T23:43:22.718Z,90.53
2018-04-15T23:45:48.974Z,90.64
2018-04-15T23:48:15.082Z,90.95
2018-04-15T23:50:41.177Z,90.12
2018-04-15T23:53:07.268Z,89.86
2018-04-15T23:55:33.421Z,89.45
2018-04-15T23:57:59.455Z,89.73
